Springdale, Nebraska
Current Conditions -  °F | °C
As of 6:53 AM on Monday 22 Dec 2014 (Local Time) from KBBW Reporting Station
Overcast Overcast  
Wind Chill: 30°   Ceiling: 3900
Heat Index: 40°   Visibility: 10mi
Dew Point: 34°   Wind: 23mph
Humidity: 79%   Direction: 330°NNW
Pressure: 29.53"   Gusts: NA
Location:  41.579°N, 98.9733°W
Report Text: KBBW 221253Z AUTO 33020KT 10SM FEW031 OVC039 04/01 A2953 RMK AO2 PK WND 32026/1248 SLP008 T00440011
Loading
Personal Weather Stations






























Interactive Weather Map New forecast layout! Learn more

10-Day Weather Forecast

Advertisements
Track Severe Weather on mobile